sensor_id;sensor_type;location;lat;lon;timestamp;P1;durP1;ratioP1;P2;durP2;ratioP2
57313;SDS011;53202;50.976;18.216;2023-04-25T00:01:05;22.70;;;9.90;;
57313;SDS011;53202;50.976;18.216;2023-04-25T00:10:53;22.00;;;11.20;;
57313;SDS011;53202;50.976;18.216;2023-04-25T00:20:37;17.50;;;8.90;;
57313;SDS011;53202;50.976;18.216;2023-04-25T00:30:22;5.30;;;4.80;;
57313;SDS011;53202;50.976;18.216;2023-04-25T00:40:06;6.70;;;6.00;;
57313;SDS011;53202;50.976;18.216;2023-04-25T00:49:52;11.00;;;6.50;;
57313;SDS011;53202;50.976;18.216;2023-04-25T00:59:37;4.60;;;3.40;;
57313;SDS011;53202;50.976;18.216;2023-04-25T01:09:22;4.50;;;3.20;;
57313;SDS011;53202;50.976;18.216;2023-04-25T01:19:09;6.20;;;2.90;;
57313;SDS011;53202;50.976;18.216;2023-04-25T01:28:54;2.90;;;2.60;;
57313;SDS011;53202;50.976;18.216;2023-04-25T01:38:38;3.20;;;3.00;;
57313;SDS011;53202;50.976;18.216;2023-04-25T01:48:23;12.90;;;3.20;;
57313;SDS011;53202;50.976;18.216;2023-04-25T01:58:07;1.60;;;1.50;;
57313;SDS011;53202;50.976;18.216;2023-04-25T02:07:59;3.10;;;2.90;;
57313;SDS011;53202;50.976;18.216;2023-04-25T02:17:42;3.30;;;3.00;;
57313;SDS011;53202;50.976;18.216;2023-04-25T02:27:30;5.10;;;2.80;;
57313;SDS011;53202;50.976;18.216;2023-04-25T02:37:13;6.90;;;5.80;;
57313;SDS011;53202;50.976;18.216;2023-04-25T02:46:56;3.50;;;2.60;;
57313;SDS011;53202;50.976;18.216;2023-04-25T02:56:40;2.90;;;2.70;;
57313;SDS011;53202;50.976;18.216;2023-04-25T03:06:24;10.60;;;9.50;;
57313;SDS011;53202;50.976;18.216;2023-04-25T03:16:08;11.00;;;9.90;;
57313;SDS011;53202;50.976;18.216;2023-04-25T03:25:51;7.10;;;6.60;;
57313;SDS011;53202;50.976;18.216;2023-04-25T03:35:35;29.10;;;12.40;;
57313;SDS011;53202;50.976;18.216;2023-04-25T03:45:18;18.10;;;16.30;;
57313;SDS011;53202;50.976;18.216;2023-04-25T03:55:02;8.30;;;6.40;;
57313;SDS011;53202;50.976;18.216;2023-04-25T04:04:47;15.50;;;2.80;;
57313;SDS011;53202;50.976;18.216;2023-04-25T04:14:30;7.90;;;2.90;;
57313;SDS011;53202;50.976;18.216;2023-04-25T04:24:13;13.10;;;8.70;;
57313;SDS011;53202;50.976;18.216;2023-04-25T04:34:02;4.60;;;4.20;;
57313;SDS011;53202;50.976;18.216;2023-04-25T04:43:48;17.20;;;6.40;;
57313;SDS011;53202;50.976;18.216;2023-04-25T04:53:32;11.40;;;8.50;;
57313;SDS011;53202;50.976;18.216;2023-04-25T05:03:15;4.70;;;4.40;;
57313;SDS011;53202;50.976;18.216;2023-04-25T05:12:59;14.20;;;10.70;;
57313;SDS011;53202;50.976;18.216;2023-04-25T05:22:44;29.20;;;11.10;;
57313;SDS011;53202;50.976;18.216;2023-04-25T05:32:28;25.80;;;7.80;;
57313;SDS011;53202;50.976;18.216;2023-04-25T05:42:11;7.90;;;6.70;;
57313;SDS011;53202;50.976;18.216;2023-04-25T05:51:56;9.00;;;7.20;;
57313;SDS011;53202;50.976;18.216;2023-04-25T06:01:39;7.40;;;6.70;;
57313;SDS011;53202;50.976;18.216;2023-04-25T06:11:23;5.20;;;4.70;;
57313;SDS011;53202;50.976;18.216;2023-04-25T06:21:06;17.70;;;9.30;;
57313;SDS011;53202;50.976;18.216;2023-04-25T06:30:52;8.50;;;7.90;;
57313;SDS011;53202;50.976;18.216;2023-04-25T06:54:48;7.90;;;5.50;;
57313;SDS011;53202;50.976;18.216;2023-04-25T07:11:49;7.40;;;6.00;;
57313;SDS011;53202;50.976;18.216;2023-04-25T07:21:33;12.10;;;5.90;;
57313;SDS011;53202;50.976;18.216;2023-04-25T07:31:20;8.30;;;7.50;;
57313;SDS011;53202;50.976;18.216;2023-04-25T07:41:04;11.90;;;6.20;;
57313;SDS011;53202;50.976;18.216;2023-04-25T07:50:48;28.80;;;10.20;;
57313;SDS011;53202;50.976;18.216;2023-04-25T08:00:33;7.00;;;4.00;;
57313;SDS011;53202;50.976;18.216;2023-04-25T08:17:34;4.80;;;3.40;;
57313;SDS011;53202;50.976;18.216;2023-04-25T08:27:21;5.80;;;4.90;;
57313;SDS011;53202;50.976;18.216;2023-04-25T08:37:08;5.10;;;4.10;;
57313;SDS011;53202;50.976;18.216;2023-04-25T08:46:55;5.00;;;4.60;;
57313;SDS011;53202;50.976;18.216;2023-04-25T08:56:45;10.50;;;3.60;;
57313;SDS011;53202;50.976;18.216;2023-04-25T09:06:29;9.90;;;3.50;;
57313;SDS011;53202;50.976;18.216;2023-04-25T09:16:59;8.50;;;6.80;;
57313;SDS011;53202;50.976;18.216;2023-04-25T09:26:57;9.20;;;4.90;;
57313;SDS011;53202;50.976;18.216;2023-04-25T09:37:08;4.40;;;4.00;;
57313;SDS011;53202;50.976;18.216;2023-04-25T09:46:55;2.10;;;2.00;;
57313;SDS011;53202;50.976;18.216;2023-04-25T09:56:48;5.20;;;3.80;;
57313;SDS011;53202;50.976;18.216;2023-04-25T10:06:37;4.70;;;4.10;;
57313;SDS011;53202;50.976;18.216;2023-04-25T10:16:21;2.80;;;1.60;;
57313;SDS011;53202;50.976;18.216;2023-04-25T10:26:06;6.50;;;3.30;;
57313;SDS011;53202;50.976;18.216;2023-04-25T10:36:09;5.10;;;2.80;;
57313;SDS011;53202;50.976;18.216;2023-04-25T10:46:19;75.10;;;5.10;;
57313;SDS011;53202;50.976;18.216;2023-04-25T10:56:16;5.90;;;3.80;;
57313;SDS011;53202;50.976;18.216;2023-04-25T11:06:07;5.00;;;3.10;;
57313;SDS011;53202;50.976;18.216;2023-04-25T11:16:09;7.30;;;3.40;;
57313;SDS011;53202;50.976;18.216;2023-04-25T11:25:54;7.70;;;4.60;;
57313;SDS011;53202;50.976;18.216;2023-04-25T11:35:41;10.00;;;4.30;;
57313;SDS011;53202;50.976;18.216;2023-04-25T11:45:26;5.20;;;4.80;;
57313;SDS011;53202;50.976;18.216;2023-04-25T11:55:13;3.70;;;3.30;;
57313;SDS011;53202;50.976;18.216;2023-04-25T12:05:05;11.50;;;3.90;;
57313;SDS011;53202;50.976;18.216;2023-04-25T12:15:07;10.00;;;7.40;;
57313;SDS011;53202;50.976;18.216;2023-04-25T12:25:03;9.00;;;8.30;;
57313;SDS011;53202;50.976;18.216;2023-04-25T12:34:48;6.40;;;4.40;;
57313;SDS011;53202;50.976;18.216;2023-04-25T12:44:33;14.30;;;7.00;;
57313;SDS011;53202;50.976;18.216;2023-04-25T12:54:17;4.30;;;2.50;;
57313;SDS011;53202;50.976;18.216;2023-04-25T13:04:00;4.10;;;3.80;;
57313;SDS011;53202;50.976;18.216;2023-04-25T13:13:44;17.40;;;2.60;;
57313;SDS011;53202;50.976;18.216;2023-04-25T13:23:30;9.90;;;5.00;;
57313;SDS011;53202;50.976;18.216;2023-04-25T13:33:17;4.10;;;1.00;;
57313;SDS011;53202;50.976;18.216;2023-04-25T13:43:05;2.50;;;1.00;;
57313;SDS011;53202;50.976;18.216;2023-04-25T13:52:49;1.50;;;1.40;;
57313;SDS011;53202;50.976;18.216;2023-04-25T14:02:35;3.10;;;2.50;;
57313;SDS011;53202;50.976;18.216;2023-04-25T14:12:19;8.00;;;3.20;;
57313;SDS011;53202;50.976;18.216;2023-04-25T14:22:03;8.90;;;3.50;;
57313;SDS011;53202;50.976;18.216;2023-04-25T14:31:47;5.60;;;2.60;;
57313;SDS011;53202;50.976;18.216;2023-04-25T14:41:31;4.50;;;2.40;;
57313;SDS011;53202;50.976;18.216;2023-04-25T14:51:15;2.30;;;1.30;;
57313;SDS011;53202;50.976;18.216;2023-04-25T15:00:59;5.80;;;3.00;;
57313;SDS011;53202;50.976;18.216;2023-04-25T15:10:43;2.90;;;2.00;;
57313;SDS011;53202;50.976;18.216;2023-04-25T15:20:28;6.40;;;2.60;;
57313;SDS011;53202;50.976;18.216;2023-04-25T15:30:14;3.80;;;2.40;;
57313;SDS011;53202;50.976;18.216;2023-04-25T15:40:01;6.00;;;2.70;;
57313;SDS011;53202;50.976;18.216;2023-04-25T15:49:53;4.20;;;2.00;;
57313;SDS011;53202;50.976;18.216;2023-04-25T15:59:39;9.50;;;5.40;;
57313;SDS011;53202;50.976;18.216;2023-04-25T16:09:26;3.80;;;2.90;;
57313;SDS011;53202;50.976;18.216;2023-04-25T16:19:09;2.90;;;2.20;;
57313;SDS011;53202;50.976;18.216;2023-04-25T16:28:55;7.60;;;3.60;;
57313;SDS011;53202;50.976;18.216;2023-04-25T16:38:39;5.20;;;2.70;;
57313;SDS011;53202;50.976;18.216;2023-04-25T16:48:23;3.20;;;2.20;;
57313;SDS011;53202;50.976;18.216;2023-04-25T16:58:07;11.90;;;4.10;;
57313;SDS011;53202;50.976;18.216;2023-04-25T17:07:53;5.40;;;4.30;;
57313;SDS011;53202;50.976;18.216;2023-04-25T17:17:40;6.10;;;4.20;;
57313;SDS011;53202;50.976;18.216;2023-04-25T17:27:25;6.40;;;4.50;;
57313;SDS011;53202;50.976;18.216;2023-04-25T17:37:12;5.90;;;4.70;;
57313;SDS011;53202;50.976;18.216;2023-04-25T17:47:00;6.70;;;5.00;;
57313;SDS011;53202;50.976;18.216;2023-04-25T17:56:46;29.20;;;6.20;;
57313;SDS011;53202;50.976;18.216;2023-04-25T18:06:31;3.80;;;3.10;;
57313;SDS011;53202;50.976;18.216;2023-04-25T18:16:17;0.60;;;0.60;;
57313;SDS011;53202;50.976;18.216;2023-04-25T18:21:11;9.60;;;4.90;;
57313;SDS011;53202;50.976;18.216;2023-04-25T18:30:55;11.50;;;5.30;;
57313;SDS011;53202;50.976;18.216;2023-04-25T18:40:39;24.00;;;4.70;;
57313;SDS011;53202;50.976;18.216;2023-04-25T18:57:42;5.40;;;4.90;;
57313;SDS011;53202;50.976;18.216;2023-04-25T19:07:28;8.60;;;6.00;;
57313;SDS011;53202;50.976;18.216;2023-04-25T19:17:14;5.30;;;4.90;;
57313;SDS011;53202;50.976;18.216;2023-04-25T19:26:58;24.30;;;6.40;;
57313;SDS011;53202;50.976;18.216;2023-04-25T19:36:42;32.80;;;4.20;;
57313;SDS011;53202;50.976;18.216;2023-04-25T19:46:31;6.00;;;4.50;;
57313;SDS011;53202;50.976;18.216;2023-04-25T19:56:17;24.10;;;5.90;;
57313;SDS011;53202;50.976;18.216;2023-04-25T20:06:02;9.90;;;8.10;;
57313;SDS011;53202;50.976;18.216;2023-04-25T20:15:46;14.80;;;8.70;;
57313;SDS011;53202;50.976;18.216;2023-04-25T20:25:30;7.10;;;5.10;;
57313;SDS011;53202;50.976;18.216;2023-04-25T20:35:15;14.30;;;5.00;;
57313;SDS011;53202;50.976;18.216;2023-04-25T20:45:00;6.50;;;4.10;;
57313;SDS011;53202;50.976;18.216;2023-04-25T20:54:50;16.00;;;5.90;;
57313;SDS011;53202;50.976;18.216;2023-04-25T21:04:36;5.90;;;4.60;;
57313;SDS011;53202;50.976;18.216;2023-04-25T21:14:20;18.70;;;6.90;;
57313;SDS011;53202;50.976;18.216;2023-04-25T21:24:09;24.70;;;8.10;;
57313;SDS011;53202;50.976;18.216;2023-04-25T21:33:55;17.50;;;14.60;;
57313;SDS011;53202;50.976;18.216;2023-04-25T21:43:39;14.60;;;10.60;;
57313;SDS011;53202;50.976;18.216;2023-04-25T21:53:23;18.70;;;11.40;;
57313;SDS011;53202;50.976;18.216;2023-04-25T22:03:08;13.50;;;10.00;;
57313;SDS011;53202;50.976;18.216;2023-04-25T22:12:53;31.20;;;12.20;;
57313;SDS011;53202;50.976;18.216;2023-04-25T22:30:00;35.70;;;14.90;;
57313;SDS011;53202;50.976;18.216;2023-04-25T22:39:43;24.40;;;13.20;;
57313;SDS011;53202;50.976;18.216;2023-04-25T22:49:27;21.90;;;13.70;;
57313;SDS011;53202;50.976;18.216;2023-04-25T22:59:12;16.30;;;12.90;;
57313;SDS011;53202;50.976;18.216;2023-04-25T23:08:57;12.30;;;6.70;;
57313;SDS011;53202;50.976;18.216;2023-04-25T23:18:41;10.50;;;7.10;;
57313;SDS011;53202;50.976;18.216;2023-04-25T23:28:30;19.40;;;9.50;;
57313;SDS011;53202;50.976;18.216;2023-04-25T23:38:22;44.60;;;14.00;;
57313;SDS011;53202;50.976;18.216;2023-04-25T23:48:08;21.50;;;13.50;;
57313;SDS011;53202;50.976;18.216;2023-04-25T23:57:52;14.80;;;13.20;;
